sensor_id;sensor_type;location;lat;lon;timestamp;pressure;altitude;pressure_sealevel;temperature;humidity
42633;BME280;28261;53.304;-6.284;2022-07-29T00:01:36;101292.19;;;13.59;87.24
42633;BME280;28261;53.304;-6.284;2022-07-29T00:03:40;101300.91;;;13.61;87.46
42633;BME280;28261;53.304;-6.284;2022-07-29T00:05:46;101294.34;;;13.67;87.11
42633;BME280;28261;53.304;-6.284;2022-07-29T00:07:49;101297.50;;;13.72;86.44
42633;BME280;28261;53.304;-6.284;2022-07-29T00:09:53;101299.84;;;13.77;86.47
42633;BME280;28261;53.304;-6.284;2022-07-29T00:11:59;101299.63;;;13.80;86.10
42633;BME280;28261;53.304;-6.284;2022-07-29T00:14:04;101297.69;;;13.82;86.02
42633;BME280;28261;53.304;-6.284;2022-07-29T00:16:08;101303.66;;;13.85;85.72
42633;BME280;28261;53.304;-6.284;2022-07-29T00:18:11;101297.16;;;13.90;85.89
42633;BME280;28261;53.304;-6.284;2022-07-29T00:20:16;101300.69;;;13.90;86.18
42633;BME280;28261;53.304;-6.284;2022-07-29T00:22:21;101300.56;;;13.92;86.10
42633;BME280;28261;53.304;-6.284;2022-07-29T00:24:25;101297.91;;;13.92;85.75
42633;BME280;28261;53.304;-6.284;2022-07-29T00:26:28;101298.41;;;13.97;85.68
42633;BME280;28261;53.304;-6.284;2022-07-29T00:28:34;101304.50;;;13.99;85.78
42633;BME280;28261;53.304;-6.284;2022-07-29T00:30:41;101304.50;;;13.99;86.27
42633;BME280;28261;53.304;-6.284;2022-07-29T00:32:45;101300.88;;;14.00;85.76
42633;BME280;28261;53.304;-6.284;2022-07-29T00:34:49;101302.47;;;14.02;85.41
42633;BME280;28261;53.304;-6.284;2022-07-29T00:37:10;101304.25;;;14.02;85.40
42633;BME280;28261;53.304;-6.284;2022-07-29T00:39:15;101302.53;;;14.01;85.97
42633;BME280;28261;53.304;-6.284;2022-07-29T00:41:19;101296.38;;;14.00;86.14
42633;BME280;28261;53.304;-6.284;2022-07-29T00:43:23;101301.69;;;14.00;86.20
42633;BME280;28261;53.304;-6.284;2022-07-29T00:45:27;101292.63;;;14.03;86.20
42633;BME280;28261;53.304;-6.284;2022-07-29T00:47:31;101297.75;;;14.06;86.06
42633;BME280;28261;53.304;-6.284;2022-07-29T00:49:35;101294.13;;;14.07;86.10
42633;BME280;28261;53.304;-6.284;2022-07-29T00:51:39;101282.50;;;14.08;86.00
42633;BME280;28261;53.304;-6.284;2022-07-29T00:53:42;101288.56;;;14.10;85.62
42633;BME280;28261;53.304;-6.284;2022-07-29T00:55:47;101286.75;;;14.11;85.56
42633;BME280;28261;53.304;-6.284;2022-07-29T00:57:53;101282.25;;;14.11;85.67
42633;BME280;28261;53.304;-6.284;2022-07-29T00:59:57;101282.03;;;14.14;85.39
42633;BME280;28261;53.304;-6.284;2022-07-29T01:02:01;101278.28;;;14.17;85.51
42633;BME280;28261;53.304;-6.284;2022-07-29T01:04:05;101277.09;;;14.21;84.93
42633;BME280;28261;53.304;-6.284;2022-07-29T01:06:09;101270.94;;;14.20;85.01
42633;BME280;28261;53.304;-6.284;2022-07-29T01:08:14;101272.53;;;14.23;85.11
42633;BME280;28261;53.304;-6.284;2022-07-29T01:10:19;101270.34;;;14.28;85.12
42633;BME280;28261;53.304;-6.284;2022-07-29T01:12:25;101274.72;;;14.29;85.13
42633;BME280;28261;53.304;-6.284;2022-07-29T01:14:30;101271.22;;;14.29;84.64
42633;BME280;28261;53.304;-6.284;2022-07-29T01:16:39;101276.53;;;14.29;84.58
42633;BME280;28261;53.304;-6.284;2022-07-29T01:18:46;101275.69;;;14.28;84.75
42633;BME280;28261;53.304;-6.284;2022-07-29T01:26:07;101275.69;;;14.28;84.91
42633;BME280;28261;53.304;-6.284;2022-07-29T01:28:39;101278.47;;;14.27;84.61
42633;BME280;28261;53.304;-6.284;2022-07-29T01:30:50;101274.00;;;14.27;84.72
42633;BME280;28261;53.304;-6.284;2022-07-29T01:33:00;101273.13;;;14.27;84.73
42633;BME280;28261;53.304;-6.284;2022-07-29T01:35:08;101272.16;;;14.28;85.21
42633;BME280;28261;53.304;-6.284;2022-07-29T01:37:18;101277.50;;;14.28;85.02
42633;BME280;28261;53.304;-6.284;2022-07-29T01:39:26;101266.84;;;14.28;84.66
42633;BME280;28261;53.304;-6.284;2022-07-29T01:41:36;101273.00;;;14.28;85.07
42633;BME280;28261;53.304;-6.284;2022-07-29T01:43:46;101271.22;;;14.29;85.04
42633;BME280;28261;53.304;-6.284;2022-07-29T01:45:56;101279.22;;;14.29;84.87
42633;BME280;28261;53.304;-6.284;2022-07-29T01:48:06;101279.31;;;14.27;85.77
42633;BME280;28261;53.304;-6.284;2022-07-29T01:50:16;101275.59;;;14.30;85.26
42633;BME280;28261;53.304;-6.284;2022-07-29T01:52:24;101278.97;;;14.32;86.18
42633;BME280;28261;53.304;-6.284;2022-07-29T01:54:32;101280.69;;;14.33;85.53
42633;BME280;28261;53.304;-6.284;2022-07-29T01:56:38;101284.31;;;14.32;85.73
42633;BME280;28261;53.304;-6.284;2022-07-29T01:58:44;101278.03;;;14.33;85.69
42633;BME280;28261;53.304;-6.284;2022-07-29T02:00:49;101277.91;;;14.34;85.80
42633;BME280;28261;53.304;-6.284;2022-07-29T02:02:54;101273.28;;;14.36;85.56
42633;BME280;28261;53.304;-6.284;2022-07-29T02:05:00;101281.09;;;14.39;85.72
42633;BME280;28261;53.304;-6.284;2022-07-29T02:07:06;101279.25;;;14.40;85.45
42633;BME280;28261;53.304;-6.284;2022-07-29T02:09:12;101283.63;;;14.41;85.36
42633;BME280;28261;53.304;-6.284;2022-07-29T02:11:17;101283.63;;;14.41;85.43
42633;BME280;28261;53.304;-6.284;2022-07-29T02:13:23;101280.00;;;14.42;85.19
42633;BME280;28261;53.304;-6.284;2022-07-29T02:15:30;101282.69;;;14.42;85.57
42633;BME280;28261;53.304;-6.284;2022-07-29T02:17:40;101279.03;;;14.43;85.50
42633;BME280;28261;53.304;-6.284;2022-07-29T02:19:45;101281.69;;;14.43;85.90
42633;BME280;28261;53.304;-6.284;2022-07-29T02:21:51;101284.16;;;14.46;85.79
42633;BME280;28261;53.304;-6.284;2022-07-29T02:23:58;101283.16;;;14.47;85.72
42633;BME280;28261;53.304;-6.284;2022-07-29T02:26:02;101275.78;;;14.51;85.71
42633;BME280;28261;53.304;-6.284;2022-07-29T02:28:07;101273.88;;;14.53;86.51
42633;BME280;28261;53.304;-6.284;2022-07-29T02:30:12;101279.81;;;14.56;85.94
42633;BME280;28261;53.304;-6.284;2022-07-29T02:32:17;101276.91;;;14.60;86.28
42633;BME280;28261;53.304;-6.284;2022-07-29T02:34:23;101270.59;;;14.61;86.21
42633;BME280;28261;53.304;-6.284;2022-07-29T02:36:28;101272.31;;;14.62;86.02
42633;BME280;28261;53.304;-6.284;2022-07-29T02:38:35;101265.16;;;14.62;86.17
42633;BME280;28261;53.304;-6.284;2022-07-29T02:40:55;101274.91;;;14.63;86.39
42633;BME280;28261;53.304;-6.284;2022-07-29T02:43:01;101272.09;;;14.65;86.24
42633;BME280;28261;53.304;-6.284;2022-07-29T02:45:06;101273.94;;;14.64;86.32
42633;BME280;28261;53.304;-6.284;2022-07-29T02:47:13;101277.44;;;14.65;86.61
42633;BME280;28261;53.304;-6.284;2022-07-29T02:49:29;101272.09;;;14.65;86.44
42633;BME280;28261;53.304;-6.284;2022-07-29T02:51:41;101276.50;;;14.66;86.46
42633;BME280;28261;53.304;-6.284;2022-07-29T02:53:49;101273.81;;;14.66;86.61
42633;BME280;28261;53.304;-6.284;2022-07-29T02:55:56;101269.44;;;14.65;86.47
42633;BME280;28261;53.304;-6.284;2022-07-29T02:58:02;101264.09;;;14.65;86.55
42633;BME280;28261;53.304;-6.284;2022-07-29T03:00:08;101263.38;;;14.63;86.76
42633;BME280;28261;53.304;-6.284;2022-07-29T03:02:15;101270.50;;;14.62;87.47
42633;BME280;28261;53.304;-6.284;2022-07-29T03:04:23;101273.16;;;14.62;87.64
42633;BME280;28261;53.304;-6.284;2022-07-29T03:06:28;101273.06;;;14.64;87.53
42633;BME280;28261;53.304;-6.284;2022-07-29T03:08:39;101277.31;;;14.66;87.26
42633;BME280;28261;53.304;-6.284;2022-07-29T03:10:44;101279.16;;;14.66;87.58
42633;BME280;28261;53.304;-6.284;2022-07-29T03:12:50;101273.69;;;14.67;87.77
42633;BME280;28261;53.304;-6.284;2022-07-29T03:14:54;101278.91;;;14.69;87.57
42633;BME280;28261;53.304;-6.284;2022-07-29T03:16:58;101277.00;;;14.71;87.29
42633;BME280;28261;53.304;-6.284;2022-07-29T03:19:02;101278.69;;;14.72;87.51
42633;BME280;28261;53.304;-6.284;2022-07-29T03:21:08;101282.94;;;14.75;87.75
42633;BME280;28261;53.304;-6.284;2022-07-29T03:23:11;101289.13;;;14.75;87.56
42633;BME280;28261;53.304;-6.284;2022-07-29T03:25:16;101277.47;;;14.76;87.23
42633;BME280;28261;53.304;-6.284;2022-07-29T03:27:19;101284.53;;;14.77;87.76
42633;BME280;28261;53.304;-6.284;2022-07-29T03:29:23;101289.84;;;14.77;87.79
42633;BME280;28261;53.304;-6.284;2022-07-29T03:31:34;101288.78;;;14.80;87.67
42633;BME280;28261;53.304;-6.284;2022-07-29T03:33:39;101290.50;;;14.81;87.70
42633;BME280;28261;53.304;-6.284;2022-07-29T03:35:43;101294.97;;;14.80;88.09
42633;BME280;28261;53.304;-6.284;2022-07-29T03:37:48;101297.75;;;14.79;88.51
42633;BME280;28261;53.304;-6.284;2022-07-29T03:39:54;101295.06;;;14.79;88.60
42633;BME280;28261;53.304;-6.284;2022-07-29T03:41:59;101293.28;;;14.79;88.68
42633;BME280;28261;53.304;-6.284;2022-07-29T03:44:05;101287.06;;;14.79;89.05
42633;BME280;28261;53.304;-6.284;2022-07-29T03:46:11;101292.41;;;14.79;89.23
42633;BME280;28261;53.304;-6.284;2022-07-29T03:48:20;101291.44;;;14.80;89.14
42633;BME280;28261;53.304;-6.284;2022-07-29T03:50:24;101296.66;;;14.81;89.84
42633;BME280;28261;53.304;-6.284;2022-07-29T03:52:28;101292.28;;;14.80;89.94
42633;BME280;28261;53.304;-6.284;2022-07-29T03:54:33;101286.09;;;14.80;90.31
42633;BME280;28261;53.304;-6.284;2022-07-29T03:56:40;101288.06;;;14.78;90.71
42633;BME280;28261;53.304;-6.284;2022-07-29T03:58:46;101294.34;;;14.77;91.39
42633;BME280;28261;53.304;-6.284;2022-07-29T04:00:50;101291.81;;;14.75;91.61
42633;BME280;28261;53.304;-6.284;2022-07-29T04:02:54;101290.09;;;14.74;91.62
42633;BME280;28261;53.304;-6.284;2022-07-29T04:04:57;101297.34;;;14.72;91.88
42633;BME280;28261;53.304;-6.284;2022-07-29T04:07:01;101300.91;;;14.72;92.35
42633;BME280;28261;53.304;-6.284;2022-07-29T04:09:05;101295.69;;;14.71;92.58
42633;BME280;28261;53.304;-6.284;2022-07-29T04:11:12;101303.56;;;14.72;93.13
42633;BME280;28261;53.304;-6.284;2022-07-29T04:13:16;101306.13;;;14.74;92.92
42633;BME280;28261;53.304;-6.284;2022-07-29T04:15:19;101303.31;;;14.76;93.00
42633;BME280;28261;53.304;-6.284;2022-07-29T04:17:23;101296.16;;;14.76;92.89
42633;BME280;28261;53.304;-6.284;2022-07-29T04:19:26;101301.41;;;14.78;92.70
42633;BME280;28261;53.304;-6.284;2022-07-29T04:21:29;101297.75;;;14.79;93.01
42633;BME280;28261;53.304;-6.284;2022-07-29T04:23:33;101304.06;;;14.78;93.59
42633;BME280;28261;53.304;-6.284;2022-07-29T04:25:48;101292.53;;;14.77;93.98
42633;BME280;28261;53.304;-6.284;2022-07-29T04:27:53;101301.28;;;14.79;93.63
42633;BME280;28261;53.304;-6.284;2022-07-29T04:30:06;101295.94;;;14.79;93.80
42633;BME280;28261;53.304;-6.284;2022-07-29T04:32:10;101301.28;;;14.79;94.07
42633;BME280;28261;53.304;-6.284;2022-07-29T04:34:13;101295.06;;;14.79;94.25
42633;BME280;28261;53.304;-6.284;2022-07-29T04:36:17;101297.75;;;14.79;94.50
42633;BME280;28261;53.304;-6.284;2022-07-29T04:38:30;101298.75;;;14.78;94.44
42633;BME280;28261;53.304;-6.284;2022-07-29T04:40:33;101298.63;;;14.79;94.42
42633;BME280;28261;53.304;-6.284;2022-07-29T04:42:39;101298.63;;;14.79;94.57
42633;BME280;28261;53.304;-6.284;2022-07-29T04:44:49;101303.09;;;14.79;94.97
42633;BME280;28261;53.304;-6.284;2022-07-29T04:46:52;101295.06;;;14.79;95.42
42633;BME280;28261;53.304;-6.284;2022-07-29T04:48:55;101296.06;;;14.78;95.55
42633;BME280;28261;53.304;-6.284;2022-07-29T04:50:59;101295.19;;;14.77;95.88
42633;BME280;28261;53.304;-6.284;2022-07-29T04:53:02;101302.25;;;14.78;96.24
42633;BME280;28261;53.304;-6.284;2022-07-29T04:55:06;101290.81;;;14.76;96.20
42633;BME280;28261;53.304;-6.284;2022-07-29T04:57:10;101296.91;;;14.78;96.26
42633;BME280;28261;53.304;-6.284;2022-07-29T04:59:13;101299.56;;;14.78;96.48
42633;BME280;28261;53.304;-6.284;2022-07-29T05:01:18;101298.75;;;14.78;97.76
42633;BME280;28261;53.304;-6.284;2022-07-29T05:03:21;101289.63;;;14.80;97.98
42633;BME280;28261;53.304;-6.284;2022-07-29T05:05:25;101291.31;;;14.81;97.69
42633;BME280;28261;53.304;-6.284;2022-07-29T05:07:28;101286.84;;;14.82;97.15
42633;BME280;28261;53.304;-6.284;2022-07-29T05:09:31;101286.75;;;14.83;97.74
42633;BME280;28261;53.304;-6.284;2022-07-29T05:11:35;101284.06;;;14.83;97.38
42633;BME280;28261;53.304;-6.284;2022-07-29T05:13:39;101288.31;;;14.86;97.30
42633;BME280;28261;53.304;-6.284;2022-07-29T05:15:47;101286.63;;;14.85;97.71
42633;BME280;28261;53.304;-6.284;2022-07-29T05:17:53;101283.09;;;14.84;97.77
42633;BME280;28261;53.304;-6.284;2022-07-29T05:19:56;101288.44;;;14.84;97.92
42633;BME280;28261;53.304;-6.284;2022-07-29T05:21:59;101296.47;;;14.84;97.50
42633;BME280;28261;53.304;-6.284;2022-07-29T05:24:03;101293.66;;;14.86;97.68
42633;BME280;28261;53.304;-6.284;2022-07-29T05:26:06;101292.78;;;14.85;97.77
42633;BME280;28261;53.304;-6.284;2022-07-29T05:28:10;101291.00;;;14.86;97.76
42633;BME280;28261;53.304;-6.284;2022-07-29T05:30:14;101293.53;;;14.87;97.65
42633;BME280;28261;53.304;-6.284;2022-07-29T05:32:17;101296.09;;;14.89;97.71
42633;BME280;28261;53.304;-6.284;2022-07-29T05:34:22;101294.25;;;14.89;97.85
42633;BME280;28261;53.304;-6.284;2022-07-29T05:36:26;101294.13;;;14.91;97.42
42633;BME280;28261;53.304;-6.284;2022-07-29T05:38:30;101295.72;;;14.94;97.43
42633;BME280;28261;53.304;-6.284;2022-07-29T05:40:33;101299.16;;;14.96;97.49
42633;BME280;28261;53.304;-6.284;2022-07-29T05:42:37;101294.41;;;14.99;97.26
42633;BME280;28261;53.304;-6.284;2022-07-29T05:44:40;101297.94;;;15.00;97.52
42633;BME280;28261;53.304;-6.284;2022-07-29T05:46:43;101293.31;;;15.02;97.71
42633;BME280;28261;53.304;-6.284;2022-07-29T05:48:49;101295.78;;;15.05;98.27
42633;BME280;28261;53.304;-6.284;2022-07-29T05:50:54;101297.25;;;15.09;97.73
42633;BME280;28261;53.304;-6.284;2022-07-29T05:52:57;101301.38;;;15.13;97.59
42633;BME280;28261;53.304;-6.284;2022-07-29T05:55:19;101303.69;;;15.18;97.41
42633;BME280;28261;53.304;-6.284;2022-07-29T05:57:23;101304.31;;;15.21;97.52
42633;BME280;28261;53.304;-6.284;2022-07-29T05:59:27;101302.09;;;15.27;97.46
42633;BME280;28261;53.304;-6.284;2022-07-29T06:01:31;101295.91;;;15.26;96.93
42633;BME280;28261;53.304;-6.284;2022-07-29T06:03:35;101300.53;;;15.24;96.89
42633;BME280;28261;53.304;-6.284;2022-07-29T06:05:39;101296.28;;;15.21;97.28
42633;BME280;28261;53.304;-6.284;2022-07-29T06:07:44;101291.91;;;15.20;97.08
42633;BME280;28261;53.304;-6.284;2022-07-29T06:09:52;101296.50;;;15.18;97.21
42633;BME280;28261;53.304;-6.284;2022-07-29T06:11:55;101298.97;;;15.21;97.26
42633;BME280;28261;53.304;-6.284;2022-07-29T06:13:59;101296.66;;;15.28;97.13
42633;BME280;28261;53.304;-6.284;2022-07-29T06:16:05;101303.94;;;15.37;96.99
42633;BME280;28261;53.304;-6.284;2022-07-29T06:18:08;101305.06;;;15.46;96.42
42633;BME280;28261;53.304;-6.284;2022-07-29T06:20:12;101302.97;;;15.50;95.78
42633;BME280;28261;53.304;-6.284;2022-07-29T06:22:16;101301.75;;;15.43;95.67
42633;BME280;28261;53.304;-6.284;2022-07-29T06:24:21;101298.22;;;15.31;95.73
42633;BME280;28261;53.304;-6.284;2022-07-29T06:26:24;101300.53;;;15.24;95.84
42633;BME280;28261;53.304;-6.284;2022-07-29T06:28:33;101303.22;;;15.24;95.75
42633;BME280;28261;53.304;-6.284;2022-07-29T06:30:36;101297.00;;;15.23;95.38
42633;BME280;28261;53.304;-6.284;2022-07-29T06:32:40;101305.41;;;15.30;95.16
42633;BME280;28261;53.304;-6.284;2022-07-29T06:34:44;101307.44;;;15.27;94.58
42633;BME280;28261;53.304;-6.284;2022-07-29T06:36:49;101313.16;;;15.22;94.48
42633;BME280;28261;53.304;-6.284;2022-07-29T06:38:55;101310.84;;;15.17;94.71
42633;BME280;28261;53.304;-6.284;2022-07-29T06:41:00;101319.72;;;15.18;94.32
42633;BME280;28261;53.304;-6.284;2022-07-29T06:43:03;101316.28;;;15.16;94.35
42633;BME280;28261;53.304;-6.284;2022-07-29T06:45:08;101316.06;;;15.19;94.30
42633;BME280;28261;53.304;-6.284;2022-07-29T06:47:11;101311.31;;;15.22;94.03
42633;BME280;28261;53.304;-6.284;2022-07-29T06:49:15;101315.69;;;15.23;93.82
42633;BME280;28261;53.304;-6.284;2022-07-29T06:51:19;101317.03;;;15.29;93.67
42633;BME280;28261;53.304;-6.284;2022-07-29T06:53:25;101319.38;;;15.34;93.34
42633;BME280;28261;53.304;-6.284;2022-07-29T06:55:28;101312.69;;;15.39;93.44
42633;BME280;28261;53.304;-6.284;2022-07-29T06:57:51;101311.97;;;15.49;92.86
42633;BME280;28261;53.304;-6.284;2022-07-29T06:59:56;101320.47;;;15.54;92.58
42633;BME280;28261;53.304;-6.284;2022-07-29T07:01:59;101319.63;;;15.53;92.42
42633;BME280;28261;53.304;-6.284;2022-07-29T07:04:02;101324.13;;;15.53;92.45
42633;BME280;28261;53.304;-6.284;2022-07-29T07:06:06;101319.88;;;15.50;92.41
42633;BME280;28261;53.304;-6.284;2022-07-29T07:08:15;101314.75;;;15.47;92.25
42633;BME280;28261;53.304;-6.284;2022-07-29T07:10:19;101315.00;;;15.44;92.51
42633;BME280;28261;53.304;-6.284;2022-07-29T07:12:24;101316.22;;;15.40;92.76
42633;BME280;28261;53.304;-6.284;2022-07-29T07:14:29;101319.75;;;15.40;92.60
42633;BME280;28261;53.304;-6.284;2022-07-29T07:16:33;101318.03;;;15.39;92.80
42633;BME280;28261;53.304;-6.284;2022-07-29T07:18:36;101316.47;;;15.37;93.03
42633;BME280;28261;53.304;-6.284;2022-07-29T07:20:39;101318.38;;;15.35;93.13
42633;BME280;28261;53.304;-6.284;2022-07-29T07:22:43;101321.19;;;15.33;93.25
42633;BME280;28261;53.304;-6.284;2022-07-29T07:24:46;101322.88;;;15.34;93.42
42633;BME280;28261;53.304;-6.284;2022-07-29T07:26:50;101321.81;;;15.37;93.40
42633;BME280;28261;53.304;-6.284;2022-07-29T07:28:53;101322.31;;;15.42;93.40
42633;BME280;28261;53.304;-6.284;2022-07-29T07:30:58;101329.09;;;15.46;93.44
42633;BME280;28261;53.304;-6.284;2022-07-29T07:33:02;101322.16;;;15.55;92.95
42633;BME280;28261;53.304;-6.284;2022-07-29T07:35:07;101321.69;;;15.61;92.71
42633;BME280;28261;53.304;-6.284;2022-07-29T07:37:11;101327.63;;;15.65;92.60
42633;BME280;28261;53.304;-6.284;2022-07-29T07:39:16;101330.69;;;15.71;92.44
42633;BME280;28261;53.304;-6.284;2022-07-29T07:41:19;101323.53;;;15.72;92.00
42633;BME280;28261;53.304;-6.284;2022-07-29T07:43:23;101328.88;;;15.72;91.99
42633;BME280;28261;53.304;-6.284;2022-07-29T07:45:27;101340.03;;;15.77;91.67
42633;BME280;28261;53.304;-6.284;2022-07-29T07:47:32;101336.91;;;15.83;91.16
42633;BME280;28261;53.304;-6.284;2022-07-29T07:49:36;101335.56;;;15.89;90.48
42633;BME280;28261;53.304;-6.284;2022-07-29T07:51:42;101335.69;;;15.99;90.25
42633;BME280;28261;53.304;-6.284;2022-07-29T07:53:51;101334.09;;;16.07;89.70
42633;BME280;28261;53.304;-6.284;2022-07-29T07:55:55;101342.47;;;16.14;89.11
42633;BME280;28261;53.304;-6.284;2022-07-29T07:58:14;101335.41;;;16.24;88.43
42633;BME280;28261;53.304;-6.284;2022-07-29T08:00:17;101342.81;;;16.32;88.07
42633;BME280;28261;53.304;-6.284;2022-07-29T08:02:24;101342.56;;;16.35;87.58
42633;BME280;28261;53.304;-6.284;2022-07-29T08:04:29;101337.69;;;16.40;87.06
42633;BME280;28261;53.304;-6.284;2022-07-29T08:06:33;101342.50;;;16.47;86.40
42633;BME280;28261;53.304;-6.284;2022-07-29T08:08:36;101343.13;;;16.50;85.44
42633;BME280;28261;53.304;-6.284;2022-07-29T08:10:40;101342.84;;;16.53;84.92
42633;BME280;28261;53.304;-6.284;2022-07-29T08:12:57;101342.38;;;16.60;84.16
42633;BME280;28261;53.304;-6.284;2022-07-29T08:15:02;101339.28;;;16.64;83.81
42633;BME280;28261;53.304;-6.284;2022-07-29T08:17:05;101341.34;;;16.72;84.01
42633;BME280;28261;53.304;-6.284;2022-07-29T08:19:09;101336.91;;;16.82;83.08
42633;BME280;28261;53.304;-6.284;2022-07-29T08:21:15;101337.03;;;16.81;81.97
42633;BME280;28261;53.304;-6.284;2022-07-29T08:23:19;101336.31;;;16.79;82.15
42633;BME280;28261;53.304;-6.284;2022-07-29T08:25:23;101335.31;;;16.80;81.89
42633;BME280;28261;53.304;-6.284;2022-07-29T08:27:26;101328.63;;;16.85;81.38
42633;BME280;28261;53.304;-6.284;2022-07-29T08:29:48;101327.88;;;16.95;81.32
42633;BME280;28261;53.304;-6.284;2022-07-29T08:31:52;101318.22;;;17.03;80.78
42633;BME280;28261;53.304;-6.284;2022-07-29T08:33:56;101323.03;;;17.09;79.78
42633;BME280;28261;53.304;-6.284;2022-07-29T08:36:02;101315.06;;;17.19;79.82
42633;BME280;28261;53.304;-6.284;2022-07-29T08:38:09;101314.44;;;17.37;79.25
42633;BME280;28261;53.304;-6.284;2022-07-29T08:40:14;101314.94;;;17.52;78.06
42633;BME280;28261;53.304;-6.284;2022-07-29T08:42:19;101317.53;;;17.63;77.52
42633;BME280;28261;53.304;-6.284;2022-07-29T08:44:24;101316.16;;;17.69;76.67
42633;BME280;28261;53.304;-6.284;2022-07-29T08:46:32;101304.06;;;17.84;76.55
42633;BME280;28261;53.304;-6.284;2022-07-29T08:48:36;101295.94;;;17.96;75.50
42633;BME280;28261;53.304;-6.284;2022-07-29T08:50:42;101296.00;;;18.15;74.60
42633;BME280;28261;53.304;-6.284;2022-07-29T08:52:48;101293.88;;;18.38;73.89
42633;BME280;28261;53.304;-6.284;2022-07-29T08:54:59;101291.78;;;18.61;72.22
42633;BME280;28261;53.304;-6.284;2022-07-29T08:57:03;101286.28;;;18.73;71.14
42633;BME280;28261;53.304;-6.284;2022-07-29T08:59:08;101293.03;;;18.87;69.85
42633;BME280;28261;53.304;-6.284;2022-07-29T09:01:18;101304.34;;;19.10;69.42
42633;BME280;28261;53.304;-6.284;2022-07-29T09:03:39;101301.53;;;19.11;68.30
42633;BME280;28261;53.304;-6.284;2022-07-29T09:05:45;101293.88;;;19.17;68.56
42633;BME280;28261;53.304;-6.284;2022-07-29T09:07:50;101286.78;;;19.16;68.25
42633;BME280;28261;53.304;-6.284;2022-07-29T09:09:54;101279.13;;;19.31;67.68
42633;BME280;28261;53.304;-6.284;2022-07-29T09:12:00;101288.16;;;19.30;66.83
42633;BME280;28261;53.304;-6.284;2022-07-29T09:14:07;101290.31;;;19.26;66.45
42633;BME280;28261;53.304;-6.284;2022-07-29T09:16:11;101288.63;;;19.25;66.25
42633;BME280;28261;53.304;-6.284;2022-07-29T09:18:36;101288.91;;;19.12;65.71
42633;BME280;28261;53.304;-6.284;2022-07-29T09:20:51;101292.88;;;19.08;66.29
42633;BME280;28261;53.304;-6.284;2022-07-29T09:23:12;101287.25;;;19.11;66.54
42633;BME280;28261;53.304;-6.284;2022-07-29T09:25:34;101282.69;;;19.21;65.97
42633;BME280;28261;53.304;-6.284;2022-07-29T09:27:40;101285.44;;;19.39;65.75
42633;BME280;28261;53.304;-6.284;2022-07-29T09:29:43;101289.63;;;19.61;64.46
42633;BME280;28261;53.304;-6.284;2022-07-29T09:31:50;101293.81;;;19.64;64.21
42633;BME280;28261;53.304;-6.284;2022-07-29T09:33:57;101299.38;;;19.62;64.03
42633;BME280;28261;53.304;-6.284;2022-07-29T09:36:03;101295.59;;;19.83;63.82
42633;BME280;28261;53.304;-6.284;2022-07-29T09:38:11;101299.59;;;20.07;61.81
42633;BME280;28261;53.304;-6.284;2022-07-29T09:40:16;101292.84;;;20.03;61.82
42633;BME280;28261;53.304;-6.284;2022-07-29T09:42:28;101293.81;;;20.02;61.71
42633;BME280;28261;53.304;-6.284;2022-07-29T09:44:44;101291.94;;;20.12;61.80
42633;BME280;28261;53.304;-6.284;2022-07-29T09:46:56;101298.16;;;20.31;61.58
42633;BME280;28261;53.304;-6.284;2022-07-29T09:49:07;101303.78;;;20.37;60.58
42633;BME280;28261;53.304;-6.284;2022-07-29T09:51:18;101298.16;;;20.31;61.27
42633;BME280;28261;53.304;-6.284;2022-07-29T09:53:31;101304.00;;;20.26;61.51
42633;BME280;28261;53.304;-6.284;2022-07-29T09:55:46;101296.09;;;20.24;61.46
42633;BME280;28261;53.304;-6.284;2022-07-29T09:57:50;101296.38;;;20.21;61.69
42633;BME280;28261;53.304;-6.284;2022-07-29T10:00:00;101290.72;;;20.24;61.85
42633;BME280;28261;53.304;-6.284;2022-07-29T10:02:12;101294.91;;;20.27;61.51
42633;BME280;28261;53.304;-6.284;2022-07-29T10:04:24;101286.91;;;20.17;61.58
42633;BME280;28261;53.304;-6.284;2022-07-29T10:06:57;101287.88;;;19.98;61.92
42633;BME280;28261;53.304;-6.284;2022-07-29T10:09:09;101281.88;;;19.86;62.43
42633;BME280;28261;53.304;-6.284;2022-07-29T10:11:14;101275.97;;;19.73;62.23
42633;BME280;28261;53.304;-6.284;2022-07-29T10:13:18;101285.75;;;19.64;63.06
42633;BME280;28261;53.304;-6.284;2022-07-29T10:15:24;101282.25;;;19.64;63.02
42633;BME280;28261;53.304;-6.284;2022-07-29T10:17:28;101289.47;;;19.63;63.17
42633;BME280;28261;53.304;-6.284;2022-07-29T10:19:33;101286.22;;;19.59;63.16
42633;BME280;28261;53.304;-6.284;2022-07-29T10:21:38;101287.34;;;19.57;63.33
42633;BME280;28261;53.304;-6.284;2022-07-29T10:23:45;101289.38;;;19.55;63.05
42633;BME280;28261;53.304;-6.284;2022-07-29T10:25:49;101288.94;;;19.50;63.57
42633;BME280;28261;53.304;-6.284;2022-07-29T10:27:54;101288.22;;;19.57;63.62
42633;BME280;28261;53.304;-6.284;2022-07-29T10:29:58;101288.13;;;19.77;63.42
42633;BME280;28261;53.304;-6.284;2022-07-29T10:32:32;101281.44;;;20.09;62.28
42633;BME280;28261;53.304;-6.284;2022-07-29T10:34:52;101285.41;;;20.33;61.99
42633;BME280;28261;53.304;-6.284;2022-07-29T10:37:06;101289.91;;;20.50;61.16
42633;BME280;28261;53.304;-6.284;2022-07-29T10:39:19;101289.00;;;20.59;61.13
42633;BME280;28261;53.304;-6.284;2022-07-29T10:42:10;101285.41;;;20.69;60.51
42633;BME280;28261;53.304;-6.284;2022-07-29T10:44:19;101291.19;;;20.74;60.79
42633;BME280;28261;53.304;-6.284;2022-07-29T10:46:25;101290.31;;;20.73;60.56
42633;BME280;28261;53.304;-6.284;2022-07-29T10:48:31;101287.63;;;20.73;60.69
42633;BME280;28261;53.304;-6.284;2022-07-29T10:50:55;101295.03;;;20.71;60.76
42633;BME280;28261;53.304;-6.284;2022-07-29T10:53:02;101290.47;;;20.72;61.08
42633;BME280;28261;53.304;-6.284;2022-07-29T10:55:30;101287.00;;;20.61;61.22
42633;BME280;28261;53.304;-6.284;2022-07-29T10:57:36;101292.00;;;20.56;61.45
42633;BME280;28261;53.304;-6.284;2022-07-29T11:00:29;101293.31;;;20.52;61.65